Weather reports worldwide

Advertisment
Otranto, Italy (16334): temperature & dewpoint: 18.01.2019 00:00:00 - 24.01.2019 00:00:00 (CET)Otranto, Italy (16334): wind speed: 18.01.2019 00:00:00 - 24.01.2019 00:00:00 (CET)Otranto, Italy (16334): wind direction: 18.01.2019 00:00:00 - 24.01.2019 00:00:00 (CET)Otranto, Italy (16334): reduced air pressure: 18.01.2019 00:00:00 - 24.01.2019 00:00:00 (CET)Otranto, Italy (16334): precipitation: 18.01.2019 00:00:00 - 24.01.2019 00:00:00 (CET)
Date & Time tt [°C] td [°C] ff [km/h] ff [kn] dd ppp [hPa] rr [mm]
24.01.2019 00:00:00 - - - - - - -
23.01.2019 23:00:00 7,7 7,7 5 3 W 994,2 -
23.01.2019 22:00:00 7,9 7,9 11 6 NW 993,8 -
23.01.2019 21:00:00 8,0 8,0 9 5 NNW 993,6 -
23.01.2019 20:00:00 9,0 9,0 9 5 NNW 994,0 -
23.01.2019 19:00:00 9,2 9,2 11 6 ENE 993,8 -
23.01.2019 18:00:00 9,4 9,4 15 8 E 993,9 -
23.01.2019 17:00:00 9,6 9,6 9 5 NE 993,9 -
23.01.2019 16:00:00 9,1 9,1 15 8 NE 994,1 -
23.01.2019 15:00:00 9,6 9,6 9 5 SE 995,7 -
23.01.2019 14:00:00 9,4 9,4 5 3 E 996,2 -
23.01.2019 13:00:00 9,5 9,5 4 2 SSW 997,6 -
23.01.2019 12:00:00 10,0 9,2 8 4 SE 998,8 -
23.01.2019 11:00:00 12,1 11,3 5 3 N 999,9 -
23.01.2019 10:00:00 11,7 11,7 4 2 NE 1000,7 -
23.01.2019 09:00:00 10,9 10,9 5 3 NNE 1001,1 -
23.01.2019 08:00:00 10,3 9,5 4 2 NE 1001,7 -
23.01.2019 07:00:00 10,0 10,0 4 2 ESE 1001,8 0,0
23.01.2019 06:00:00 9,3 8,5 0 0 N 1001,9 -
23.01.2019 05:00:00 9,7 8,9 0 0 N 1002,3 -
23.01.2019 04:00:00 9,5 8,7 4 2 NW 1002,8 -
23.01.2019 03:00:00 10,0 9,2 0 0 N 1003,4 -
23.01.2019 02:00:00 10,5 9,7 2 1 SSE 1004,0 -
23.01.2019 01:00:00 10,1 9,3 5 3 SSW 1004,5 0,0
23.01.2019 00:00:00 9,8 9,0 5 3 S 1004,8 -
22.01.2019 23:00:00 9,6 8,8 5 3 WSW 1005,1 -
22.01.2019 22:00:00 10,3 9,5 9 5 W 1004,7 -
22.01.2019 21:00:00 10,8 10,8 9 5 SW 1005,0 -
22.01.2019 20:00:00 10,8 10,8 9 5 W 1004,6 -
22.01.2019 19:00:00 10,4 10,4 9 5 SSW 1004,2 -
22.01.2019 18:00:00 10,7 10,7 9 5 SSW 1003,6 -
22.01.2019 17:00:00 10,9 10,9 4 2 SW 1003,6 -
22.01.2019 16:00:00 13,5 13,4 18 10 WSW 1003,7 -
22.01.2019 15:00:00 13,0 12,9 13 7 SSW 1003,9 -
22.01.2019 14:00:00 13,0 12,9 18 10 S 1004,4 -
22.01.2019 13:00:00 12,6 12,6 21 11 S 1005,1 -
22.01.2019 12:00:00 11,9 11,9 24 13 S 1005,9 -
22.01.2019 11:00:00 11,0 11,0 22 12 S 1006,4 -
22.01.2019 10:00:00 11,0 11,0 22 12 S 1006,7 -
22.01.2019 09:00:00 11,6 11,6 24 13 S 1006,8 -
22.01.2019 08:00:00 11,4 11,4 18 10 SE 1007,7 -
22.01.2019 07:00:00 11,4 11,4 21 11 SSW 1008,1 -
22.01.2019 06:00:00 11,1 11,1 24 13 S 1008,4 -
22.01.2019 05:00:00 11,0 11,0 21 11 S 1009,0 -
22.01.2019 04:00:00 10,8 10,8 29 16 SSW 1009,4 -
22.01.2019 03:00:00 11,4 11,4 28 15 SSE 1010,5 -
22.01.2019 02:00:00 12,1 12,1 24 13 S 1010,8 -
22.01.2019 01:00:00 11,6 11,6 18 10 S 1011,5 0,0
22.01.2019 00:00:00 11,7 11,7 22 12 S 1012,3 -
21.01.2019 23:00:00 11,9 11,9 21 11 S 1012,3 -
21.01.2019 22:00:00 12,4 12,4 18 10 SSW 1012,4 -
21.01.2019 21:00:00 12,1 12,1 13 7 S 1012,4 -
21.01.2019 20:00:00 12,1 12,1 13 7 S 1012,5 -
21.01.2019 19:00:00 12,3 12,3 15 8 S 1012,4 0,0
21.01.2019 18:00:00 12,1 12,1 11 6 S 1012,5 -
21.01.2019 17:00:00 12,3 12,3 5 3 S 1012,6 -
21.01.2019 16:00:00 13,2 13,1 11 6 S 1012,7 -
21.01.2019 15:00:00 14,0 13,9 15 8 S 1012,8 -
21.01.2019 14:00:00 14,4 13,4 16 9 SSE 1012,8 -
21.01.2019 13:00:00 14,9 13,9 11 6 SSE 1013,3 0,0
21.01.2019 12:00:00 15,2 15,1 11 6 SE 1013,7 -
21.01.2019 11:00:00 14,5 13,5 9 5 SSE 1014,5 -
21.01.2019 10:00:00 13,5 13,4 9 5 SE 1014,5 -
21.01.2019 09:00:00 12,9 12,8 5 3 ESE 1014,3 -
21.01.2019 08:00:00 9,7 9,7 2 1 SE 1014,1 -
21.01.2019 07:00:00 9,4 9,4 4 2 S 1014,0 0,0
21.01.2019 06:00:00 9,3 9,3 11 6 S 1014,1 -
21.01.2019 05:00:00 10,2 10,2 2 1 ESE 1013,8 -
21.01.2019 04:00:00 9,8 9,8 2 1 N 1014,1 -
21.01.2019 03:00:00 9,7 9,7 0 0 N 1014,2 -
21.01.2019 02:00:00 10,0 10,0 0 0 N 1014,4 -
21.01.2019 01:00:00 9,9 9,9 0 0 N 1014,2 0,0
21.01.2019 00:00:00 10,2 10,2 2 1 NNW 1014,8 -
20.01.2019 23:00:00 10,0 10,0 0 0 N 1014,7 -
20.01.2019 22:00:00 9,9 9,9 0 0 N 1014,4 -
20.01.2019 21:00:00 9,6 9,6 2 1 NW 1014,3 -
20.01.2019 20:00:00 9,7 9,7 4 2 NW 1014,0 -
20.01.2019 19:00:00 10,4 10,4 4 2 N 1013,8 -
20.01.2019 18:00:00 11,3 11,3 4 2 NNE 1013,7 -
20.01.2019 17:00:00 11,8 11,8 2 1 WNW 1013,6 -
20.01.2019 16:00:00 12,7 12,7 4 2 E 1013,5 -
20.01.2019 15:00:00 12,7 12,7 8 4 NE 1013,6 -
20.01.2019 14:00:00 12,8 12,8 9 5 NE 1013,4 -
20.01.2019 13:00:00 12,9 12,8 5 3 NE 1013,8 0,0
20.01.2019 12:00:00 13,1 13,0 5 3 NE 1014,4 -
20.01.2019 11:00:00 14,0 13,9 4 2 SSE 1014,6 -
20.01.2019 10:00:00 12,7 12,7 4 2 SSW 1014,7 -
20.01.2019 09:00:00 10,0 10,0 2 1 NNW 1014,2 -
20.01.2019 08:00:00 8,6 8,6 4 2 WNW 1013,9 -
20.01.2019 07:00:00 8,3 8,3 5 3 NNW 1013,6 -
20.01.2019 06:00:00 9,2 9,2 4 2 NNW 1013,3 -
20.01.2019 05:00:00 8,6 8,6 2 1 WNW 1013,1 -
20.01.2019 04:00:00 9,1 9,1 0 0 N 1013,0 -
20.01.2019 03:00:00 10,2 10,2 4 2 E 1013,1 -
20.01.2019 02:00:00 10,9 10,9 4 2 E 1013,1 -
20.01.2019 01:00:00 10,6 10,6 2 1 NNE 1012,9 -
20.01.2019 00:00:00 10,9 10,9 2 1 S 1013,4 -
19.01.2019 23:00:00 12,0 12,0 13 7 SSE 1013,4 -
19.01.2019 22:00:00 11,9 11,9 13 7 SE 1013,2 -
19.01.2019 21:00:00 12,2 12,2 16 9 SSE 1013,1 -
19.01.2019 20:00:00 12,4 12,4 16 9 SE 1013,0 -
19.01.2019 19:00:00 12,4 12,4 18 10 SSE 1013,1 -
19.01.2019 18:00:00 12,4 12,4 22 12 SSE 1012,9 -
19.01.2019 17:00:00 12,1 12,1 13 7 SE 1012,6 -
19.01.2019 16:00:00 11,5 11,5 9 5 SE 1013,5 -
19.01.2019 15:00:00 11,9 11,9 13 7 SE 1013,6 -
19.01.2019 14:00:00 12,4 12,4 5 3 SE 1013,6 -
19.01.2019 13:00:00 12,5 12,5 8 4 SE 1013,9 -
19.01.2019 12:00:00 11,3 11,3 9 5 WSW 1014,6 -
19.01.2019 11:00:00 11,3 11,3 15 8 SSW 1015,3 -
19.01.2019 10:00:00 13,2 13,1 9 5 SSE 1015,1 -
19.01.2019 09:00:00 12,5 12,5 8 4 S 1014,8 -
19.01.2019 08:00:00 11,5 11,5 9 5 S 1014,5 -
19.01.2019 07:00:00 11,4 11,4 9 5 SSW 1014,3 -
19.01.2019 06:00:00 11,5 11,5 11 6 SSW 1014,1 -
19.01.2019 05:00:00 11,3 11,3 8 4 SSW 1014,1 -
19.01.2019 04:00:00 11,3 11,3 5 3 SSW 1014,7 -
19.01.2019 03:00:00 11,5 11,5 8 4 S 1014,9 -
19.01.2019 02:00:00 11,7 11,7 8 4 S 1015,2 -
19.01.2019 01:00:00 11,5 11,5 9 5 S 1015,3 -
19.01.2019 00:00:00 11,4 11,4 8 4 S 1015,5 -
18.01.2019 23:00:00 11,9 11,9 8 4 S 1015,7 -
18.01.2019 22:00:00 12,0 12,0 9 5 SW 1015,6 -
18.01.2019 21:00:00 11,3 11,3 9 5 SSW 1015,4 -
18.01.2019 20:00:00 11,6 11,6 11 6 S 1015,3 -
18.01.2019 19:00:00 11,7 11,7 11 6 S 1015,3 0,0
18.01.2019 18:00:00 12,4 12,4 13 7 SSW 1015,2 -
18.01.2019 17:00:00 13,1 13,0 11 6 SW 1015,2 -
18.01.2019 16:00:00 14,0 13,9 15 8 S 1015,0 -
18.01.2019 15:00:00 14,4 14,3 15 8 SSW 1014,8 -
18.01.2019 14:00:00 15,1 14,1 16 9 S 1014,7 -
18.01.2019 13:00:00 14,8 13,8 18 10 SSW 1015,0 0,0
18.01.2019 12:00:00 15,3 15,2 22 12 S 1015,5 -
18.01.2019 11:00:00 14,4 14,3 13 7 S 1016,2 -
18.01.2019 10:00:00 13,2 13,1 13 7 S 1016,2 -
18.01.2019 09:00:00 12,0 12,0 18 10 S 1016,0 -
18.01.2019 08:00:00 11,9 11,9 21 11 SSE 1015,6 -
18.01.2019 07:00:00 12,2 12,2 16 9 SSW 1015,6 -
18.01.2019 06:00:00 12,3 12,3 16 9 S 1015,7 -
18.01.2019 05:00:00 12,1 12,1 9 5 S 1015,8 -
18.01.2019 04:00:00 12,0 12,0 11 6 S 1016,4 -
18.01.2019 03:00:00 11,0 11,0 11 6 SSW 1017,2 -
18.01.2019 02:00:00 11,2 11,2 9 5 S 1017,4 -
18.01.2019 01:00:00 10,9 10,9 9 5 S 1017,5 0,0
18.01.2019 00:00:00 10,8 10,8 9 5 S 1018,0 -

tt = temperature
td = dewpoint
ff = wind speed
dd = wind direction
ppp = reduced air pressure
rr = precipitation

Next stations